Time;durP1;ratioP1;P1;durP2;ratioP2;P2;SDS_P1;SDS_P2;PMS_P1;PMS_P2;Temp;Humidity;BMP_temperature;BMP_pressure;BME280_temperature;BME280_humidity;BME280_pressure;Samples;Min_cycle;Max_cycle;Signal;HPM_P1;HPM_P2
2021/01/26 00:00:05;;;;;;;30.13;20.57;;;;;;;0.54;100.00;100112.19;5060171;28;20678;-71
2021/01/26 00:02:31;;;;;;;31.63;21.70;;;;;;;0.55;100.00;100100.50;5076076;28;20229;-70
2021/01/26 00:04:57;;;;;;;32.60;21.27;;;;;;;0.55;100.00;100100.50;5059498;28;20174;-71
2021/01/26 00:07:24;;;;;;;31.83;21.10;;;;;;;0.47;100.00;100107.97;5058732;28;20305;-71
2021/01/26 00:09:53;;;;;;;30.90;21.27;;;;;;;0.49;100.00;100106.69;5093218;28;20206;-71
2021/01/26 00:12:18;;;;;;;32.27;21.37;;;;;;;0.53;100.00;100107.91;5075250;28;20283;-70
2021/01/26 00:14:44;;;;;;;31.33;20.80;;;;;;;0.54;100.00;100101.50;5059103;28;20664;-71
2021/01/26 00:17:12;;;;;;;28.07;20.40;;;;;;;0.60;100.00;100099.81;5058596;28;20230;-71
2021/01/26 00:19:39;;;;;;;30.57;20.60;;;;;;;0.59;100.00;100104.34;5093220;28;20846;-71
2021/01/26 00:22:07;;;;;;;28.70;20.07;;;;;;;0.70;100.00;100098.25;5059456;28;20229;-70
2021/01/26 00:24:33;;;;;;;28.07;19.63;;;;;;;0.71;100.00;100099.88;5059126;28;20297;-71
2021/01/26 00:27:01;;;;;;;29.30;19.93;;;;;;;0.83;100.00;100100.78;5093081;28;20242;-71
2021/01/26 00:29:27;;;;;;;29.17;20.70;;;;;;;0.82;100.00;100097.31;5087427;28;20203;-71
2021/01/26 00:31:53;;;;;;;28.07;20.27;;;;;;;0.92;100.00;100099.44;5056776;28;20215;-71
2021/01/26 00:34:19;;;;;;;27.93;20.47;;;;;;;0.95;100.00;100098.97;5089552;28;20214;-71
2021/01/26 00:36:44;;;;;;;29.70;21.00;;;;;;;1.13;100.00;100100.56;5055864;28;20735;-70
2021/01/26 00:39:10;;;;;;;28.20;20.63;;;;;;;1.18;100.00;100105.25;5072825;28;20218;-71
2021/01/26 00:41:37;;;;;;;30.23;20.73;;;;;;;1.14;100.00;100102.22;5055890;28;20587;-71
2021/01/26 00:44:03;;;;;;;28.43;20.60;;;;;;;1.13;100.00;100093.63;5039087;28;20178;-71
2021/01/26 00:46:28;;;;;;;29.77;20.93;;;;;;;1.19;100.00;100094.34;5054785;28;20250;-71
2021/01/26 00:48:54;;;;;;;27.40;20.90;;;;;;;0.93;100.00;100099.19;5072824;28;20191;-70
2021/01/26 00:51:20;;;;;;;28.23;20.93;;;;;;;0.89;100.00;100102.56;5072159;28;20288;-70
2021/01/26 00:53:46;;;;;;;27.30;21.00;;;;;;;0.97;100.00;100099.56;5056198;28;20652;-71
2021/01/26 00:56:14;;;;;;;28.03;20.10;;;;;;;0.88;100.00;100100.91;5055000;28;20293;-71
2021/01/26 00:58:44;;;;;;;27.03;19.83;;;;;;;1.05;100.00;100092.06;5039498;28;20294;-71
2021/01/26 01:01:12;;;;;;;27.97;20.67;;;;;;;0.98;100.00;100093.19;5055630;28;20215;-71
2021/01/26 01:03:42;;;;;;;25.60;20.17;;;;;;;0.85;100.00;100096.03;5088848;28;20256;-71
2021/01/26 01:06:10;;;;;;;28.70;20.17;;;;;;;0.87;100.00;100099.28;5073117;28;20214;-71
2021/01/26 01:08:36;;;;;;;28.70;21.13;;;;;;;0.81;100.00;100089.50;5055840;28;20543;-71
2021/01/26 01:11:02;;;;;;;29.03;20.20;;;;;;;0.95;100.00;100090.97;5038694;28;20222;-70
2021/01/26 01:13:27;;;;;;;28.27;19.70;;;;;;;0.90;100.00;100088.16;5071949;28;20660;-71
2021/01/26 01:15:53;;;;;;;28.63;20.50;;;;;;;0.89;100.00;100090.00;5037655;28;20734;-71
2021/01/26 01:18:18;;;;;;;32.13;22.10;;;;;;;0.95;100.00;100085.63;5055103;28;20214;-71
2021/01/26 01:20:44;;;;;;;31.27;21.17;;;;;;;0.92;100.00;100083.41;5041677;28;20222;-71
2021/01/26 01:23:09;;;;;;;27.77;21.33;;;;;;;0.94;100.00;100086.66;5057379;28;20193;-71
2021/01/26 01:25:35;;;;;;;31.70;21.37;;;;;;;0.95;100.00;100088.28;5073956;28;20222;-71
2021/01/26 01:28:01;;;;;;;28.73;21.83;;;;;;;0.95;100.00;100090.97;5092159;28;20662;-71
2021/01/26 01:30:28;;;;;;;28.13;21.80;;;;;;;0.98;100.00;100090.53;5074913;28;20309;-70
2021/01/26 01:32:56;;;;;;;32.23;22.87;;;;;;;1.06;100.00;100092.88;5075815;28;20216;-71
2021/01/26 01:35:22;;;;;;;28.83;22.07;;;;;;;1.13;100.00;100084.53;5073927;28;20226;-70
2021/01/26 01:37:50;;;;;;;33.03;23.47;;;;;;;1.17;100.00;100080.41;5058161;28;20243;-71
2021/01/26 01:40:29;;;;;;;30.73;22.57;;;;;;;1.24;100.00;100086.44;5040989;28;20186;-71
2021/01/26 01:42:57;;;;;;;33.87;23.07;;;;;;;1.19;100.00;100091.69;5074412;28;20186;-70
2021/01/26 01:45:24;;;;;;;35.53;22.63;;;;;;;1.35;100.00;100083.00;5073580;28;20213;-71
2021/01/26 01:47:55;;;;;;;31.20;22.80;;;;;;;1.55;100.00;100080.84;5041379;28;20170;-71
2021/01/26 01:50:32;;;;;;;30.67;23.03;;;;;;;1.64;100.00;100082.16;5058393;28;20185;-71
2021/01/26 01:53:08;;;;;;;31.77;23.97;;;;;;;1.54;100.00;100092.63;5075317;28;20181;-71
2021/01/26 01:55:35;;;;;;;30.53;23.40;;;;;;;1.51;100.00;100098.41;5057362;28;20301;-71
2021/01/26 01:58:16;;;;;;;31.53;23.77;;;;;;;1.73;100.00;100088.81;5057238;28;20225;-72
2021/01/26 02:00:41;;;;;;;29.90;23.50;;;;;;;1.72;100.00;100081.81;5058217;28;20217;-71
2021/01/26 02:03:14;;;;;;;30.80;24.33;;;;;;;1.78;100.00;100079.06;5075294;28;20690;-72
2021/01/26 02:05:40;;;;;;;32.47;23.07;;;;;;;1.81;100.00;100083.13;5044536;28;20224;-71
2021/01/26 02:08:15;;;;;;;28.00;22.73;;;;;;;1.83;100.00;100075.69;5063169;28;20198;-71
2021/01/26 02:10:45;;;;;;;30.00;22.80;;;;;;;1.91;100.00;100079.66;5082920;28;20244;-70
2021/01/26 02:13:11;;;;;;;28.80;22.03;;;;;;;1.94;100.00;100079.19;5042227;28;20183;-71
2021/01/26 02:15:36;;;;;;;30.97;23.07;;;;;;;1.97;100.00;100076.03;5072509;28;20217;-71
2021/01/26 02:18:05;;;;;;;29.97;22.90;;;;;;;1.92;100.00;100086.66;5057115;28;20706;-71
2021/01/26 02:21:14;;;;;;;28.47;22.10;;;;;;;1.94;100.00;100081.88;5073409;28;20286;-71
2021/01/26 02:24:01;;;;;;;27.03;21.60;;;;;;;1.94;100.00;100079.19;5067230;28;20194;-71
2021/01/26 02:26:52;;;;;;;29.90;22.70;;;;;;;1.90;100.00;100079.06;5072663;28;20226;-71
2021/01/26 02:29:22;;;;;;;28.57;22.03;;;;;;;1.96;100.00;100081.66;5045596;28;20198;-71
2021/01/26 02:32:14;;;;;;;33.00;22.73;;;;;;;1.85;100.00;100090.47;5056423;28;20633;-71
2021/01/26 02:34:51;;;;;;;28.50;21.10;;;;;;;1.77;100.00;100085.44;5056384;28;20276;-71
2021/01/26 02:37:54;;;;;;;30.13;21.60;;;;;;;1.76;100.00;100086.50;5072599;28;20229;-71
2021/01/26 02:40:34;;;;;;;25.97;21.10;;;;;;;1.68;100.00;100076.13;5090099;28;20611;-71
2021/01/26 02:42:59;;;;;;;28.37;22.33;;;;;;;1.59;100.00;100084.69;5040949;28;20181;-72
2021/01/26 02:45:36;;;;;;;30.67;21.63;;;;;;;1.50;100.00;100080.72;5090559;28;20232;-71
2021/01/26 02:48:37;;;;;;;29.00;21.80;;;;;;;1.54;100.00;100088.06;5057750;28;20234;-71
2021/01/26 02:51:09;;;;;;;30.47;20.93;;;;;;;1.47;100.00;100089.22;5072907;28;20217;-71
2021/01/26 02:54:02;;;;;;;27.00;21.07;;;;;;;1.31;100.00;100087.16;5073763;28;20236;-71
2021/01/26 02:56:33;;;;;;;29.17;22.50;;;;;;;1.40;100.00;100087.69;5073145;28;20775;-71
2021/01/26 02:59:14;;;;;;;33.37;23.10;;;;;;;1.41;100.00;100086.63;5072968;28;20221;-71
2021/01/26 03:01:43;;;;;;;30.77;23.03;;;;;;;1.38;100.00;100093.25;5089423;28;20363;-71
2021/01/26 03:04:15;;;;;;;33.53;23.13;;;;;;;1.23;100.00;100095.53;5056673;28;20182;-71
2021/01/26 03:06:44;;;;;;;31.87;22.73;;;;;;;1.12;100.00;100097.31;5056935;28;20292;-71
2021/01/26 03:09:25;;;;;;;30.90;23.10;;;;;;;1.08;100.00;100107.66;5058205;28;20194;-71
2021/01/26 03:11:56;;;;;;;33.97;23.97;;;;;;;1.02;100.00;100102.38;5076682;28;20232;-71
2021/01/26 03:14:43;;;;;;;34.87;25.43;;;;;;;1.15;100.00;100103.88;5094259;28;20194;-70
2021/01/26 03:17:15;;;;;;;33.73;24.27;;;;;;;1.11;100.00;100106.38;5094878;28;20221;-70
2021/01/26 03:19:44;;;;;;;37.20;25.57;;;;;;;0.98;100.00;100109.22;5094381;28;20202;-70
2021/01/26 03:22:10;;;;;;;34.00;25.13;;;;;;;0.98;100.00;100114.56;5060178;28;20275;-71
2021/01/26 03:24:38;;;;;;;35.77;25.10;;;;;;;0.98;100.00;100115.38;5060052;28;20178;-71
2021/01/26 03:27:07;;;;;;;38.33;28.17;;;;;;;1.09;100.00;100119.16;5059002;28;20210;-71
2021/01/26 03:29:38;;;;;;;35.33;25.83;;;;;;;1.23;100.00;100118.78;5060180;28;20198;-71
2021/01/26 03:32:06;;;;;;;37.43;27.50;;;;;;;1.37;100.00;100118.34;5060711;28;20683;-71
2021/01/26 03:34:33;;;;;;;38.70;27.43;;;;;;;1.55;100.00;100121.00;5060164;28;20226;-70
2021/01/26 03:37:01;;;;;;;39.37;27.03;;;;;;;1.58;100.00;100121.34;5060042;28;20218;-71
2021/01/26 03:39:27;;;;;;;38.97;27.77;;;;;;;1.72;100.00;100122.81;5093656;28;20267;-71
2021/01/26 03:41:52;;;;;;;42.03;29.87;;;;;;;1.82;100.00;100122.25;5076106;28;20245;-71
2021/01/26 03:44:18;;;;;;;42.80;28.93;;;;;;;1.91;100.00;100124.34;5043317;28;20655;-71
2021/01/26 03:46:46;;;;;;;41.93;29.20;;;;;;;1.91;100.00;100120.88;5075930;28;20218;-71
2021/01/26 03:49:31;;;;;;;37.23;28.17;;;;;;;1.93;100.00;100120.38;5076892;28;20667;-71
2021/01/26 03:52:20;;;;;;;37.87;26.90;;;;;;;1.92;100.00;100117.94;5060511;28;20214;-71
2021/01/26 03:55:10;;;;;;;35.77;25.87;;;;;;;1.97;100.00;100132.25;5076423;28;20182;-71
2021/01/26 03:57:51;;;;;;;38.03;27.43;;;;;;;1.86;100.00;100123.41;5089895;28;20308;-71
2021/01/26 04:00:34;;;;;;;35.50;27.07;;;;;;;1.83;100.00;100134.56;5084997;28;20190;-71
2021/01/26 04:03:29;;;;;;;35.77;27.60;;;;;;;2.06;100.00;100130.88;5094165;28;20612;-71
2021/01/26 04:05:56;;;;;;;40.03;28.90;;;;;;;1.98;100.00;100138.47;5062898;28;20344;-70
2021/01/26 04:08:35;;;;;;;37.13;27.13;;;;;;;2.01;100.00;100135.31;5077875;28;20194;-72
2021/01/26 04:11:09;;;;;;;38.20;26.87;;;;;;;1.87;100.00;100136.56;5062877;28;20214;-70
2021/01/26 04:14:12;;;;;;;37.07;27.27;;;;;;;2.03;100.00;100142.06;5047045;28;20204;-71
2021/01/26 04:16:43;;;;;;;37.17;26.97;;;;;;;2.11;100.00;100144.41;5079580;28;20241;-72
2021/01/26 04:19:12;;;;;;;35.93;26.87;;;;;;;2.02;100.00;100145.78;5060249;28;20238;-70
2021/01/26 04:21:38;;;;;;;37.90;27.63;;;;;;;1.99;100.00;100140.88;5058827;28;20222;-70
2021/01/26 04:24:04;;;;;;;37.33;25.40;;;;;;;2.01;100.00;100144.13;5059858;28;20186;-71
2021/01/26 04:26:31;;;;;;;36.03;27.37;;;;;;;2.05;100.00;100145.34;5059671;28;20582;-71
2021/01/26 04:28:57;;;;;;;39.87;28.43;;;;;;;2.15;100.00;100142.91;5059973;28;20574;-70
2021/01/26 04:31:23;;;;;;;38.47;27.77;;;;;;;2.18;100.00;100145.13;5058836;28;20226;-71
2021/01/26 04:33:55;;;;;;;39.40;27.77;;;;;;;2.24;100.00;100144.19;5076768;28;20284;-71
2021/01/26 04:36:24;;;;;;;39.13;27.17;;;;;;;2.19;100.00;100145.94;5092205;28;20313;-71
2021/01/26 04:38:50;;;;;;;41.53;28.77;;;;;;;2.25;100.00;100151.16;5059235;28;20224;-71
2021/01/26 04:41:33;;;;;;;42.47;29.87;;;;;;;2.23;100.00;100147.91;5075349;28;20222;-71
2021/01/26 04:44:16;;;;;;;38.80;27.73;;;;;;;2.22;100.00;100151.66;5076826;28;20182;-71
2021/01/26 04:47:03;;;;;;;38.33;28.57;;;;;;;2.25;100.00;100159.19;5092087;28;20730;-70
2021/01/26 04:49:41;;;;;;;38.13;28.43;;;;;;;2.16;100.00;100162.44;5091972;28;20198;-71
2021/01/26 04:52:27;;;;;;;41.13;29.53;;;;;;;2.19;100.00;100160.13;5055673;28;20241;-71
2021/01/26 04:55:21;;;;;;;40.83;28.93;;;;;;;2.20;100.00;100169.81;5071961;28;20198;-70
2021/01/26 04:58:07;;;;;;;40.77;28.50;;;;;;;2.19;100.00;100165.50;5071515;28;20280;-71
2021/01/26 05:00:52;;;;;;;40.97;28.70;;;;;;;2.16;100.00;100179.34;5056897;28;20226;-70
2021/01/26 05:03:37;;;;;;;40.73;29.43;;;;;;;1.92;100.00;100177.66;5071060;28;20185;-70
2021/01/26 05:06:08;;;;;;;42.83;29.43;;;;;;;1.96;100.00;100186.06;5054407;28;20222;-71
2021/01/26 05:08:43;;;;;;;40.07;28.83;;;;;;;1.70;100.00;100185.59;5039023;28;20617;-70
2021/01/26 05:11:16;;;;;;;41.53;28.87;;;;;;;2.02;100.00;100188.63;5039393;28;20219;-70
2021/01/26 05:13:44;;;;;;;40.23;29.33;;;;;;;2.15;100.00;100190.28;5039917;28;20190;-70
2021/01/26 05:16:13;;;;;;;39.33;29.40;;;;;;;2.20;100.00;100193.91;5037299;28;20230;-70
2021/01/26 05:18:44;;;;;;;42.27;30.73;;;;;;;2.18;100.00;100192.50;5038960;28;20239;-70
2021/01/26 05:21:15;;;;;;;41.83;29.70;;;;;;;2.21;100.00;100202.75;5054631;28;20226;-70
2021/01/26 05:23:43;;;;;;;44.43;30.93;;;;;;;2.34;100.00;100203.34;5055460;28;20195;-70
2021/01/26 05:26:12;;;;;;;41.43;30.37;;;;;;;2.31;100.00;100198.47;5037641;28;20226;-71
2021/01/26 05:28:42;;;;;;;41.77;30.03;;;;;;;2.20;100.00;100211.81;5055639;28;20699;-71
2021/01/26 05:31:13;;;;;;;38.77;28.17;;;;;;;2.17;100.00;100210.44;5040032;28;20711;-71
2021/01/26 05:33:41;;;;;;;39.10;27.53;;;;;;;2.02;100.00;100207.38;5041664;28;20887;-71
2021/01/26 05:36:09;;;;;;;35.97;27.40;;;;;;;1.79;100.00;100209.13;5037305;28;20304;-71
2021/01/26 05:38:34;;;;;;;35.97;27.10;;;;;;;1.92;100.00;100215.16;5038739;28;20297;-73
2021/01/26 05:41:04;;;;;;;36.50;27.67;;;;;;;2.02;100.00;100211.91;5043915;28;20722;-72
2021/01/26 05:43:32;;;;;;;40.60;28.77;;;;;;;2.02;100.00;100214.59;5071206;28;20171;-71
2021/01/26 05:46:00;;;;;;;37.67;28.07;;;;;;;2.06;100.00;100216.56;5020353;28;20617;-71
2021/01/26 05:48:31;;;;;;;38.83;27.17;;;;;;;2.07;100.00;100222.72;5037896;28;20233;-71
2021/01/26 05:51:26;;;;;;;38.17;27.57;;;;;;;2.10;100.00;100228.44;5037166;28;20234;-71
2021/01/26 05:54:23;;;;;;;35.63;26.57;;;;;;;2.11;100.00;100235.47;5059288;28;20195;-71
2021/01/26 05:56:55;;;;;;;36.73;27.47;;;;;;;2.03;100.00;100227.75;5070567;28;20284;-71
2021/01/26 05:59:25;;;;;;;36.80;27.83;;;;;;;2.28;100.00;100235.63;5054529;28;20215;-72
2021/01/26 06:01:51;;;;;;;38.73;28.20;;;;;;;2.24;100.00;100243.28;5069589;28;20235;-72
2021/01/26 06:04:25;;;;;;;41.57;28.73;;;;;;;2.00;100.00;100254.97;5056841;28;20182;-71
2021/01/26 06:06:57;;;;;;;39.70;29.33;;;;;;;1.97;100.00;100258.09;5073614;28;20222;-71
2021/01/26 06:09:39;;;;;;;40.77;28.07;;;;;;;2.01;100.00;100264.63;5057909;28;20700;-71
2021/01/26 06:12:11;;;;;;;41.10;29.20;;;;;;;2.20;100.00;100266.22;5037954;28;20221;-71
2021/01/26 06:14:36;;;;;;;45.03;30.67;;;;;;;1.95;100.00;100262.84;5085030;28;20187;-71
2021/01/26 06:17:10;;;;;;;44.13;30.53;;;;;;;2.05;100.00;100263.16;5083186;28;20218;-71
2021/01/26 06:19:36;;;;;;;40.60;29.10;;;;;;;2.17;100.00;100285.41;5054181;28;20206;-69
2021/01/26 06:22:01;;;;;;;45.73;30.60;;;;;;;2.27;100.00;100269.59;5049255;28;20245;-71
2021/01/26 06:24:31;;;;;;;42.33;30.70;;;;;;;2.12;100.00;100279.91;5054100;28;20170;-71
2021/01/26 06:27:21;;;;;;;42.73;29.03;;;;;;;2.24;100.00;100282.66;5070541;28;20301;-72
2021/01/26 06:30:10;;;;;;;40.47;29.43;;;;;;;2.29;100.00;100278.25;5065908;28;20885;-71
2021/01/26 06:32:36;;;;;;;43.37;29.67;;;;;;;2.26;100.00;100281.38;5044116;28;20573;-71
2021/01/26 06:35:14;;;;;;;43.00;29.97;;;;;;;2.25;100.00;100290.44;5074434;28;20210;-71
2021/01/26 06:38:02;;;;;;;42.90;30.43;;;;;;;2.28;100.00;100297.22;5070671;28;20225;-71
2021/01/26 06:40:35;;;;;;;43.17;28.40;;;;;;;2.35;100.00;100306.81;5052036;28;20680;-71
2021/01/26 06:43:23;;;;;;;43.50;30.03;;;;;;;2.33;100.00;100308.91;5053347;28;20183;-71
2021/01/26 06:46:22;;;;;;;41.77;29.17;;;;;;;2.35;100.00;100323.69;5050141;28;20323;-71
2021/01/26 06:48:54;;;;;;;40.10;28.40;;;;;;;2.36;100.00;100319.13;5031477;28;20286;-71
2021/01/26 06:51:34;;;;;;;42.33;29.37;;;;;;;2.28;100.00;100322.16;5058208;28;20229;-71
2021/01/26 06:54:23;;;;;;;40.70;28.80;;;;;;;2.08;100.00;100331.50;5069246;28;20191;-71
2021/01/26 06:56:58;;;;;;;36.53;27.97;;;;;;;2.08;100.00;100337.66;5035692;28;20229;-71
2021/01/26 06:59:51;;;;;;;39.67;28.20;;;;;;;2.02;100.00;100343.09;5088814;28;20279;-71
2021/01/26 07:02:22;;;;;;;39.77;28.77;;;;;;;2.27;100.00;100349.97;5090397;28;20300;-71
2021/01/26 07:05:06;;;;;;;38.53;28.57;;;;;;;2.16;100.00;100356.13;5102577;28;20177;-71
2021/01/26 07:07:40;;;;;;;39.13;28.10;;;;;;;2.23;100.00;100358.69;5090299;28;20220;-70
2021/01/26 07:10:12;;;;;;;41.97;29.10;;;;;;;2.27;100.00;100355.31;5091099;28;20697;-70
2021/01/26 07:13:03;;;;;;;41.70;28.37;;;;;;;2.14;100.00;100360.84;5091287;28;20288;-70
2021/01/26 07:16:08;;;;;;;38.60;28.33;;;;;;;2.15;100.00;100367.84;5089266;28;20220;-70
2021/01/26 07:19:02;;;;;;;40.43;27.80;;;;;;;2.05;100.00;100370.25;5075960;28;20274;-70
2021/01/26 07:21:34;;;;;;;37.60;27.17;;;;;;;2.05;100.00;100386.31;5089417;28;20641;-70
2021/01/26 07:24:33;;;;;;;42.50;29.93;;;;;;;2.12;100.00;100392.41;5073396;28;20190;-70
2021/01/26 07:27:36;;;;;;;41.03;28.90;;;;;;;2.02;100.00;100394.78;5090750;28;20233;-70
2021/01/26 07:30:09;;;;;;;39.10;28.30;;;;;;;2.25;100.00;100396.78;5073554;28;20217;-70
2021/01/26 07:32:59;;;;;;;40.07;28.93;;;;;;;2.16;100.00;100398.97;5106489;28;20661;-70
2021/01/26 07:35:46;;;;;;;41.83;28.83;;;;;;;1.94;100.00;100410.31;5079266;28;20709;-70
2021/01/26 07:38:34;;;;;;;39.13;28.97;;;;;;;1.82;100.00;100419.34;5111199;28;20213;-70
2021/01/26 07:41:29;;;;;;;39.27;28.17;;;;;;;1.97;100.00;100410.69;5077426;28;20574;-70
2021/01/26 07:44:15;;;;;;;43.47;28.77;;;;;;;2.04;100.00;100399.94;5083167;28;20196;-71
2021/01/26 07:46:53;;;;;;;40.53;29.63;;;;;;;2.22;100.00;100414.13;5111845;28;20214;-70
2021/01/26 07:49:42;;;;;;;38.67;28.50;;;;;;;2.09;100.00;100410.78;5094943;28;20258;-70
2021/01/26 07:52:08;;;;;;;38.77;28.53;;;;;;;2.19;100.00;100421.78;5075924;28;20282;-70
2021/01/26 07:54:42;;;;;;;40.63;29.87;;;;;;;2.29;100.00;100425.59;5109766;28;20190;-70
2021/01/26 07:57:10;;;;;;;38.97;28.77;;;;;;;2.18;100.00;100433.53;5078816;28;20245;-70
2021/01/26 07:59:46;;;;;;;39.80;28.87;;;;;;;2.23;100.00;100442.53;5063822;28;20214;-70
2021/01/26 08:02:39;;;;;;;39.40;29.47;;;;;;;2.09;100.00;100441.06;5096982;28;20240;-70
2021/01/26 08:05:11;;;;;;;41.00;28.83;;;;;;;2.30;100.00;100443.28;5093549;28;20193;-70
2021/01/26 08:07:41;;;;;;;37.97;28.13;;;;;;;2.22;100.00;100445.47;5114558;28;20188;-70
2021/01/26 08:10:07;;;;;;;39.33;29.70;;;;;;;2.50;100.00;100443.84;5062648;28;20214;-70
2021/01/26 08:12:33;;;;;;;40.83;28.90;;;;;;;2.17;100.00;100443.44;5080250;28;20641;-71
2021/01/26 08:15:39;;;;;;;40.53;29.03;;;;;;;2.28;100.00;100452.59;5113209;28;20264;-70
2021/01/26 08:18:26;;;;;;;40.00;28.87;;;;;;;2.29;100.00;100457.72;5038921;28;20226;-70
2021/01/26 08:20:52;;;;;;;39.87;28.63;;;;;;;2.25;100.00;100464.56;5054379;28;20337;-70
2021/01/26 08:23:22;;;;;;;39.90;30.07;;;;;;;2.49;100.00;100460.97;5108072;27;20268;-70
2021/01/26 08:25:51;;;;;;;44.00;29.53;;;;;;;2.65;100.00;100469.22;5112395;28;20228;-70
2021/01/26 08:28:38;;;;;;;37.40;27.73;;;;;;;2.68;100.00;100480.31;5079982;28;20186;-70
2021/01/26 08:31:26;;;;;;;39.40;28.77;;;;;;;2.61;100.00;100475.25;5112353;28;20235;-71
2021/01/26 08:33:53;;;;;;;41.13;29.13;;;;;;;2.76;100.00;100479.16;5082051;28;20648;-72
2021/01/26 08:36:35;;;;;;;39.77;28.90;;;;;;;2.61;100.00;100481.44;5068395;28;20221;-71
2021/01/26 08:39:08;;;;;;;40.47;29.60;;;;;;;2.98;100.00;100475.75;5075830;28;20213;-71
2021/01/26 08:41:48;;;;;;;40.17;29.17;;;;;;;2.97;100.00;100484.88;5095772;28;20226;-71
2021/01/26 08:44:19;;;;;;;40.60;28.53;;;;;;;2.97;100.00;100494.75;5097216;28;20646;-71
2021/01/26 08:46:46;;;;;;;37.23;28.97;;;;;;;2.96;100.00;100501.97;5113769;27;20225;-71
2021/01/26 08:49:24;;;;;;;36.53;28.70;;;;;;;2.98;100.00;100502.56;5113159;28;20574;-71
2021/01/26 08:51:49;;;;;;;39.90;29.27;;;;;;;3.04;100.00;100500.84;5059432;28;20268;-71
2021/01/26 08:54:41;;;;;;;39.00;29.77;;;;;;;2.96;100.00;100520.75;5112547;28;20657;-71
2021/01/26 08:57:30;;;;;;;37.93;28.53;;;;;;;2.90;100.00;100516.31;5112036;28;20217;-71
2021/01/26 09:00:14;;;;;;;38.47;28.83;;;;;;;3.09;100.00;100518.72;5093863;28;20218;-71
2021/01/26 09:03:24;;;;;;;39.90;29.87;;;;;;;2.81;100.00;100516.84;5093004;28;20221;-72
2021/01/26 09:05:59;;;;;;;40.97;30.13;;;;;;;2.74;100.00;100533.00;5075471;28;20908;-70
2021/01/26 09:08:39;;;;;;;39.83;29.63;;;;;;;2.70;100.00;100528.34;5075164;28;20694;-71
2021/01/26 09:11:45;;;;;;;43.37;29.30;;;;;;;2.51;100.00;100540.13;5105345;28;20310;-70
2021/01/26 09:14:24;;;;;;;44.23;32.17;;;;;;;2.37;100.00;100535.13;5092930;28;20588;-71
2021/01/26 09:16:56;;;;;;;42.17;29.93;;;;;;;2.19;100.00;100548.47;5058373;28;20719;-71
2021/01/26 09:19:23;;;;;;;43.50;31.70;;;;;;;2.06;100.00;100553.97;5058485;28;20210;-70
2021/01/26 09:21:48;;;;;;;44.03;31.20;;;;;;;1.98;100.00;100559.63;5074829;28;20306;-70
2021/01/26 09:24:21;;;;;;;45.73;32.40;;;;;;;1.86;100.00;100573.13;5058016;28;20675;-70
2021/01/26 09:26:46;;;;;;;44.17;31.23;;;;;;;2.26;100.00;100575.22;5058293;28;20687;-70
2021/01/26 09:29:27;;;;;;;43.37;31.73;;;;;;;2.17;100.00;100580.03;5058248;28;20209;-71
2021/01/26 09:31:54;;;;;;;45.13;32.17;;;;;;;2.27;100.00;100582.19;5057913;28;20217;-71
2021/01/26 09:34:25;;;;;;;43.27;31.97;;;;;;;2.20;100.00;100579.59;5057992;28;20561;-70
2021/01/26 09:36:51;;;;;;;46.00;31.63;;;;;;;2.21;100.00;100583.91;5090903;28;20309;-70
2021/01/26 09:39:19;;;;;;;42.77;31.10;;;;;;;2.48;100.00;100580.75;5074942;28;20206;-71
2021/01/26 09:41:45;;;;;;;43.80;31.87;;;;;;;2.72;100.00;100577.19;5073894;28;20233;-71
2021/01/26 09:44:12;;;;;;;43.47;30.33;;;;;;;2.75;100.00;100572.19;5057600;28;20226;-70
2021/01/26 09:46:41;;;;;;;38.53;27.33;;;;;;;2.67;100.00;100573.53;5090785;28;20238;-70
2021/01/26 09:49:17;;;;;;;45.30;31.83;;;;;;;2.76;100.00;100579.16;5058256;28;20612;-70
2021/01/26 09:51:46;;;;;;;41.53;31.27;;;;;;;2.94;100.00;100581.84;5073623;28;20680;-71
2021/01/26 09:54:15;;;;;;;40.63;30.67;;;;;;;2.71;100.00;100586.25;5057689;28;20187;-71
2021/01/26 09:56:41;;;;;;;37.00;28.47;;;;;;;2.78;100.00;100600.41;5057494;28;20997;-71
2021/01/26 09:59:08;;;;;;;39.13;28.00;;;;;;;2.69;100.00;100609.78;5075364;28;20226;-71
2021/01/26 10:01:34;;;;;;;35.77;27.70;;;;;;;2.93;100.00;100617.78;5073557;28;20225;-71
2021/01/26 10:04:06;;;;;;;39.87;29.33;;;;;;;2.98;100.00;100617.91;5058217;28;20178;-71
2021/01/26 10:06:33;;;;;;;36.47;27.43;;;;;;;3.17;100.00;100619.53;5073599;28;20218;-71
2021/01/26 10:09:18;;;;;;;36.33;28.27;;;;;;;3.25;100.00;100624.59;5074570;28;20576;-71
2021/01/26 10:11:43;;;;;;;33.87;25.97;;;;;;;3.06;100.00;100625.66;5073271;28;20226;-71
2021/01/26 10:14:19;;;;;;;36.50;27.03;;;;;;;3.11;100.00;100623.09;5040515;28;20560;-72
2021/01/26 10:16:51;;;;;;;34.50;25.93;;;;;;;3.08;100.00;100620.88;5074510;28;20750;-71
2021/01/26 10:19:24;;;;;;;38.57;27.30;;;;;;;2.89;100.00;100643.38;5072987;28;20716;-71
2021/01/26 10:21:52;;;;;;;33.23;25.20;;;;;;;3.09;100.00;100649.34;5074542;28;20715;-71
2021/01/26 10:24:28;;;;;;;32.93;25.67;;;;;;;2.93;100.00;100644.59;5057528;28;20239;-71
2021/01/26 10:27:12;;;;;;;35.90;26.57;;;;;;;3.00;100.00;100645.31;5057751;28;20218;-70
2021/01/26 10:29:42;;;;;;;35.73;27.77;;;;;;;3.02;100.00;100659.31;5057414;28;20267;-71
2021/01/26 10:32:11;;;;;;;32.87;24.93;;;;;;;3.10;100.00;100659.03;5056976;28;20230;-71
2021/01/26 10:34:49;;;;;;;33.27;25.00;;;;;;;2.86;100.00;100662.59;5073198;28;20190;-71
2021/01/26 10:37:24;;;;;;;32.10;24.03;;;;;;;2.74;100.00;100672.41;5073635;28;20261;-71
2021/01/26 10:40:16;;;;;;;33.03;25.67;;;;;;;2.90;100.00;100663.78;5090536;28;20303;-70
2021/01/26 10:42:44;;;;;;;32.37;24.90;;;;;;;3.20;100.00;100657.44;5073130;28;20275;-71
2021/01/26 10:45:13;;;;;;;32.00;24.63;;;;;;;3.30;100.00;100667.69;5053133;28;20644;-71
2021/01/26 10:47:40;;;;;;;32.70;24.53;;;;;;;3.13;100.00;100661.25;5070433;28;20228;-71
2021/01/26 10:50:25;;;;;;;33.37;26.37;;;;;;;3.33;100.00;100661.84;5036811;28;20210;-72
2021/01/26 10:52:53;;;;;;;33.80;26.53;;;;;;;3.55;100.00;100671.88;5038653;28;20211;-70
2021/01/26 10:55:20;;;;;;;31.43;24.80;;;;;;;3.71;100.00;100655.94;5052529;28;20270;-70
2021/01/26 10:57:46;;;;;;;29.97;23.97;;;;;;;3.44;100.00;100660.06;5069903;28;20213;-70
2021/01/26 11:00:15;;;;;;;29.83;23.53;;;;;;;3.55;100.00;100650.38;5036064;28;20194;-70
2021/01/26 11:02:40;;;;;;;30.87;24.43;;;;;;;2.98;100.00;100660.81;5053688;28;20244;-70
2021/01/26 11:05:08;;;;;;;29.73;23.43;;;;;;;3.34;100.00;100658.94;5085688;28;20191;-69
2021/01/26 11:07:33;;;;;;;35.60;26.67;;;;;;;3.42;100.00;100660.50;5072540;28;20179;-68
2021/01/26 11:10:01;;;;;;;40.03;29.53;;;;;;;3.53;100.00;100657.84;5076431;28;20210;-69
2021/01/26 11:12:27;;;;;;;31.67;23.03;;;;;;;3.35;100.00;100667.78;5037764;28;20215;-69
2021/01/26 11:14:54;;;;;;;32.17;22.77;;;;;;;3.52;100.00;100669.66;5073178;28;20595;-70
2021/01/26 11:17:21;;;;;;;31.27;24.20;;;;;;;3.51;100.00;100674.19;5072859;28;20222;-70
2021/01/26 11:19:46;;;;;;;27.63;20.53;;;;;;;3.65;100.00;100683.72;5056635;28;20237;-69
2021/01/26 11:22:12;;;;;;;29.03;21.77;;;;;;;3.89;100.00;100680.06;5071079;28;20714;-70
2021/01/26 11:24:38;;;;;;;28.43;22.40;;;;;;;4.03;100.00;100684.19;5070101;28;20190;-70
2021/01/26 11:27:06;;;;;;;25.23;20.37;;;;;;;4.27;100.00;100681.34;5070615;28;20284;-71
2021/01/26 11:29:31;;;;;;;25.83;19.73;;;;;;;4.36;100.00;100678.09;5090959;28;20289;-71
2021/01/26 11:31:58;;;;;;;22.73;19.00;;;;;;;4.48;100.00;100673.53;5077875;28;20626;-70
2021/01/26 11:34:23;;;;;;;24.33;19.13;;;;;;;4.39;99.80;100682.97;5094862;28;20194;-70
2021/01/26 11:36:49;;;;;;;22.83;17.83;;;;;;;4.14;100.00;100683.41;5093573;28;20699;-70
2021/01/26 11:39:17;;;;;;;22.00;18.90;;;;;;;4.30;99.86;100683.53;5077159;28;20221;-71